sensor_id;sensor_type;location;lat;lon;timestamp;pressure;altitude;pressure_sealevel;temperature;humidity
39739;BME280;25422;48.286;8.484;2022-11-02T00:00:22;94692.41;;;5.58;100.00
39739;BME280;25422;48.286;8.484;2022-11-02T00:02:48;94688.13;;;5.68;100.00
39739;BME280;25422;48.286;8.484;2022-11-02T00:05:14;94690.50;;;5.60;100.00
39739;BME280;25422;48.286;8.484;2022-11-02T00:07:40;94693.16;;;5.49;100.00
39739;BME280;25422;48.286;8.484;2022-11-02T00:10:07;94693.03;;;5.50;100.00
39739;BME280;25422;48.286;8.484;2022-11-02T00:12:33;94689.56;;;5.40;100.00
39739;BME280;25422;48.286;8.484;2022-11-02T00:14:58;94691.69;;;5.35;100.00
39739;BME280;25422;48.286;8.484;2022-11-02T00:17:24;94691.13;;;5.31;100.00
39739;BME280;25422;48.286;8.484;2022-11-02T00:19:49;94703.16;;;5.32;100.00
39739;BME280;25422;48.286;8.484;2022-11-02T00:22:15;94706.94;;;5.28;100.00
39739;BME280;25422;48.286;8.484;2022-11-02T00:24:41;94706.56;;;5.33;100.00
39739;BME280;25422;48.286;8.484;2022-11-02T00:27:06;94709.72;;;5.36;100.00
39739;BME280;25422;48.286;8.484;2022-11-02T00:29:33;94701.00;;;5.37;100.00
39739;BME280;25422;48.286;8.484;2022-11-02T00:31:59;94715.88;;;5.35;100.00
39739;BME280;25422;48.286;8.484;2022-11-02T00:34:24;94708.91;;;5.36;100.00
39739;BME280;25422;48.286;8.484;2022-11-02T00:36:50;94721.69;;;5.28;100.00
39739;BME280;25422;48.286;8.484;2022-11-02T00:39:16;94720.03;;;5.27;100.00
39739;BME280;25422;48.286;8.484;2022-11-02T00:41:43;94715.19;;;5.22;100.00
39739;BME280;25422;48.286;8.484;2022-11-02T00:44:08;94710.94;;;5.32;100.00
39739;BME280;25422;48.286;8.484;2022-11-02T00:46:33;94709.59;;;5.38;100.00
39739;BME280;25422;48.286;8.484;2022-11-02T00:48:59;94703.34;;;5.40;100.00
39739;BME280;25422;48.286;8.484;2022-11-02T00:51:26;94703.34;;;5.40;100.00
39739;BME280;25422;48.286;8.484;2022-11-02T00:53:51;94703.22;;;5.42;100.00
39739;BME280;25422;48.286;8.484;2022-11-02T00:56:17;94699.06;;;5.51;100.00
39739;BME280;25422;48.286;8.484;2022-11-02T00:58:42;94699.38;;;5.57;100.00
39739;BME280;25422;48.286;8.484;2022-11-02T01:01:09;94689.63;;;5.50;100.00
39739;BME280;25422;48.286;8.484;2022-11-02T01:03:34;94693.09;;;5.60;100.00
39739;BME280;25422;48.286;8.484;2022-11-02T01:06:12;94686.69;;;5.64;100.00
39739;BME280;25422;48.286;8.484;2022-11-02T01:08:38;94682.69;;;5.60;100.00
39739;BME280;25422;48.286;8.484;2022-11-02T01:11:18;94689.50;;;5.51;100.00
39739;BME280;25422;48.286;8.484;2022-11-02T01:13:44;94680.44;;;5.46;100.00
39739;BME280;25422;48.286;8.484;2022-11-02T01:16:11;94686.13;;;5.39;100.00
39739;BME280;25422;48.286;8.484;2022-11-02T01:18:38;94686.38;;;5.36;100.00
39739;BME280;25422;48.286;8.484;2022-11-02T01:21:05;94680.31;;;5.47;100.00
39739;BME280;25422;48.286;8.484;2022-11-02T01:23:32;94676.50;;;5.51;100.00
39739;BME280;25422;48.286;8.484;2022-11-02T01:26:02;94683.69;;;5.59;100.00
39739;BME280;25422;48.286;8.484;2022-11-02T01:28:27;94680.13;;;5.60;100.00
39739;BME280;25422;48.286;8.484;2022-11-02T01:30:53;94691.59;;;5.57;100.00
39739;BME280;25422;48.286;8.484;2022-11-02T01:33:18;94678.53;;;5.48;100.00
39739;BME280;25422;48.286;8.484;2022-11-02T01:35:44;94676.59;;;5.40;100.00
39739;BME280;25422;48.286;8.484;2022-11-02T01:38:09;94671.88;;;5.34;100.00
39739;BME280;25422;48.286;8.484;2022-11-02T01:40:36;94669.91;;;5.26;100.00
39739;BME280;25422;48.286;8.484;2022-11-02T01:45:43;94668.69;;;5.30;100.00
39739;BME280;25422;48.286;8.484;2022-11-02T01:48:09;94670.88;;;5.25;100.00
39739;BME280;25422;48.286;8.484;2022-11-02T01:50:35;94661.31;;;5.26;100.00
39739;BME280;25422;48.286;8.484;2022-11-02T01:53:02;94660.16;;;5.39;100.00
39739;BME280;25422;48.286;8.484;2022-11-02T01:55:30;94669.34;;;5.44;100.00
39739;BME280;25422;48.286;8.484;2022-11-02T01:58:00;94663.84;;;5.37;100.00
39739;BME280;25422;48.286;8.484;2022-11-02T02:00:26;94665.69;;;5.25;100.00
39739;BME280;25422;48.286;8.484;2022-11-02T02:03:04;94656.38;;;5.22;100.00
39739;BME280;25422;48.286;8.484;2022-11-02T02:05:32;94651.53;;;5.18;100.00
39739;BME280;25422;48.286;8.484;2022-11-02T02:08:00;94655.22;;;5.15;100.00
39739;BME280;25422;48.286;8.484;2022-11-02T02:10:29;94658.56;;;5.06;100.00
39739;BME280;25422;48.286;8.484;2022-11-02T02:12:54;94652.28;;;5.09;100.00
39739;BME280;25422;48.286;8.484;2022-11-02T02:15:24;94657.38;;;5.10;100.00
39739;BME280;25422;48.286;8.484;2022-11-02T02:17:59;94652.94;;;5.01;100.00
39739;BME280;25422;48.286;8.484;2022-11-02T02:20:31;94655.13;;;5.05;100.00
39739;BME280;25422;48.286;8.484;2022-11-02T02:31:39;94657.44;;;4.87;100.00
39739;BME280;25422;48.286;8.484;2022-11-02T02:34:23;94655.06;;;4.96;100.00
39739;BME280;25422;48.286;8.484;2022-11-02T02:37:03;94656.38;;;4.90;100.00
39739;BME280;25422;48.286;8.484;2022-11-02T02:39:45;94663.22;;;4.91;100.00
39739;BME280;25422;48.286;8.484;2022-11-02T02:42:43;94659.44;;;4.95;100.00
39739;BME280;25422;48.286;8.484;2022-11-02T02:45:12;94658.84;;;4.92;100.00
39739;BME280;25422;48.286;8.484;2022-11-02T02:47:53;94659.19;;;4.87;100.00
39739;BME280;25422;48.286;8.484;2022-11-02T02:50:24;94658.38;;;4.86;100.00
39739;BME280;25422;48.286;8.484;2022-11-02T02:52:53;94652.13;;;4.89;100.00
39739;BME280;25422;48.286;8.484;2022-11-02T02:55:24;94651.88;;;4.92;100.00
39739;BME280;25422;48.286;8.484;2022-11-02T02:57:52;94646.00;;;4.90;100.00
39739;BME280;25422;48.286;8.484;2022-11-02T03:00:19;94641.69;;;4.79;100.00
39739;BME280;25422;48.286;8.484;2022-11-02T03:02:46;94642.03;;;4.75;100.00
39739;BME280;25422;48.286;8.484;2022-11-02T03:05:31;94642.09;;;4.63;100.00
39739;BME280;25422;48.286;8.484;2022-11-02T03:08:09;94641.88;;;4.55;100.00
39739;BME280;25422;48.286;8.484;2022-11-02T03:10:48;94635.63;;;4.46;100.00
39739;BME280;25422;48.286;8.484;2022-11-02T03:13:31;94633.41;;;4.42;100.00
39739;BME280;25422;48.286;8.484;2022-11-02T03:22:12;94631.88;;;4.50;100.00
39739;BME280;25422;48.286;8.484;2022-11-02T03:24:50;94635.16;;;4.52;100.00
39739;BME280;25422;48.286;8.484;2022-11-02T03:27:24;94644.00;;;4.50;100.00
39739;BME280;25422;48.286;8.484;2022-11-02T03:30:11;94653.19;;;4.43;100.00
39739;BME280;25422;48.286;8.484;2022-11-02T03:32:49;94662.72;;;4.42;100.00
39739;BME280;25422;48.286;8.484;2022-11-02T03:35:50;94660.50;;;4.37;100.00
39739;BME280;25422;48.286;8.484;2022-11-02T03:38:31;94656.13;;;4.38;100.00
39739;BME280;25422;48.286;8.484;2022-11-02T03:41:00;94663.09;;;4.37;100.00
39739;BME280;25422;48.286;8.484;2022-11-02T03:43:27;94659.44;;;4.40;100.00
39739;BME280;25422;48.286;8.484;2022-11-02T03:45:57;94652.25;;;4.44;100.00
39739;BME280;25422;48.286;8.484;2022-11-02T03:48:35;94652.94;;;4.46;100.00
39739;BME280;25422;48.286;8.484;2022-11-02T03:51:07;94649.16;;;4.50;100.00
39739;BME280;25422;48.286;8.484;2022-11-02T03:54:05;94646.78;;;4.58;100.00
39739;BME280;25422;48.286;8.484;2022-11-02T03:56:44;94651.47;;;4.76;100.00
39739;BME280;25422;48.286;8.484;2022-11-02T03:59:12;94654.41;;;4.82;100.00
39739;BME280;25422;48.286;8.484;2022-11-02T04:01:43;94655.13;;;4.84;100.00
39739;BME280;25422;48.286;8.484;2022-11-02T04:04:10;94662.66;;;5.09;100.00
39739;BME280;25422;48.286;8.484;2022-11-02T04:06:36;94660.25;;;5.28;100.00
39739;BME280;25422;48.286;8.484;2022-11-02T04:09:03;94662.16;;;5.47;100.00
39739;BME280;25422;48.286;8.484;2022-11-02T04:11:30;94665.56;;;5.48;100.00
39739;BME280;25422;48.286;8.484;2022-11-02T04:14:15;94665.88;;;5.54;100.00
39739;BME280;25422;48.286;8.484;2022-11-02T04:17:00;94678.63;;;5.57;100.00
39739;BME280;25422;48.286;8.484;2022-11-02T04:19:48;94672.63;;;5.67;100.00
39739;BME280;25422;48.286;8.484;2022-11-02T04:22:13;94669.81;;;5.70;100.00
39739;BME280;25422;48.286;8.484;2022-11-02T04:25:09;94679.94;;;5.73;100.00
39739;BME280;25422;48.286;8.484;2022-11-02T04:28:12;94679.41;;;5.79;100.00
39739;BME280;25422;48.286;8.484;2022-11-02T04:30:52;94684.69;;;5.89;100.00
39739;BME280;25422;48.286;8.484;2022-11-02T04:33:21;94679.22;;;5.92;100.00
39739;BME280;25422;48.286;8.484;2022-11-02T04:36:08;94688.78;;;5.91;100.00
39739;BME280;25422;48.286;8.484;2022-11-02T04:38:35;94696.00;;;5.88;100.00
39739;BME280;25422;48.286;8.484;2022-11-02T04:41:13;94698.09;;;5.94;100.00
39739;BME280;25422;48.286;8.484;2022-11-02T04:43:58;94697.47;;;6.02;100.00
39739;BME280;25422;48.286;8.484;2022-11-02T04:46:26;94701.47;;;6.06;100.00
39739;BME280;25422;48.286;8.484;2022-11-02T04:48:54;94703.13;;;6.07;100.00
39739;BME280;25422;48.286;8.484;2022-11-02T04:51:20;94699.81;;;6.05;100.00
39739;BME280;25422;48.286;8.484;2022-11-02T04:53:47;94700.13;;;5.90;100.00
39739;BME280;25422;48.286;8.484;2022-11-02T04:56:13;94704.75;;;5.87;100.00
39739;BME280;25422;48.286;8.484;2022-11-02T04:58:38;94703.53;;;5.91;100.00
39739;BME280;25422;48.286;8.484;2022-11-02T05:01:09;94700.72;;;5.94;100.00
39739;BME280;25422;48.286;8.484;2022-11-02T05:03:36;94708.00;;;6.00;100.00
39739;BME280;25422;48.286;8.484;2022-11-02T05:06:02;94711.66;;;5.98;100.00
39739;BME280;25422;48.286;8.484;2022-11-02T05:08:28;94712.53;;;5.87;100.00
39739;BME280;25422;48.286;8.484;2022-11-02T05:10:55;94705.13;;;5.82;100.00
39739;BME280;25422;48.286;8.484;2022-11-02T05:13:22;94703.75;;;5.78;100.00
39739;BME280;25422;48.286;8.484;2022-11-02T05:15:47;94714.69;;;5.82;100.00
39739;BME280;25422;48.286;8.484;2022-11-02T05:18:13;94715.13;;;5.87;100.00
39739;BME280;25422;48.286;8.484;2022-11-02T05:20:38;94714.50;;;5.95;100.00
39739;BME280;25422;48.286;8.484;2022-11-02T05:23:04;94718.44;;;5.89;100.00
39739;BME280;25422;48.286;8.484;2022-11-02T05:25:31;94722.25;;;5.85;100.00
39739;BME280;25422;48.286;8.484;2022-11-02T05:27:58;94718.81;;;5.84;100.00
39739;BME280;25422;48.286;8.484;2022-11-02T05:30:24;94721.41;;;5.84;100.00
39739;BME280;25422;48.286;8.484;2022-11-02T05:32:54;94724.66;;;5.77;100.00
39739;BME280;25422;48.286;8.484;2022-11-02T05:35:20;94718.75;;;5.74;100.00
39739;BME280;25422;48.286;8.484;2022-11-02T05:37:45;94724.34;;;5.70;100.00
39739;BME280;25422;48.286;8.484;2022-11-02T05:40:11;94727.34;;;5.75;100.00
39739;BME280;25422;48.286;8.484;2022-11-02T05:42:36;94731.59;;;5.76;100.00
39739;BME280;25422;48.286;8.484;2022-11-02T05:45:02;94739.78;;;5.71;100.00
39739;BME280;25422;48.286;8.484;2022-11-02T05:47:28;94734.13;;;5.66;100.00
39739;BME280;25422;48.286;8.484;2022-11-02T05:49:53;94737.44;;;5.68;100.00
39739;BME280;25422;48.286;8.484;2022-11-02T05:52:18;94734.13;;;5.66;100.00
39739;BME280;25422;48.286;8.484;2022-11-02T05:54:44;94730.19;;;5.72;100.00
39739;BME280;25422;48.286;8.484;2022-11-02T05:57:09;94734.66;;;5.81;100.00
39739;BME280;25422;48.286;8.484;2022-11-02T05:59:35;94734.69;;;5.91;100.00
39739;BME280;25422;48.286;8.484;2022-11-02T06:02:00;94742.94;;;5.96;100.00
39739;BME280;25422;48.286;8.484;2022-11-02T06:04:26;94740.81;;;6.01;100.00
39739;BME280;25422;48.286;8.484;2022-11-02T06:06:51;94733.22;;;6.10;100.00
39739;BME280;25422;48.286;8.484;2022-11-02T06:09:16;94737.78;;;6.17;100.00
39739;BME280;25422;48.286;8.484;2022-11-02T06:11:42;94739.41;;;6.18;100.00
39739;BME280;25422;48.286;8.484;2022-11-02T06:14:07;94740.25;;;6.19;100.00
39739;BME280;25422;48.286;8.484;2022-11-02T06:16:33;94747.00;;;6.31;100.00
39739;BME280;25422;48.286;8.484;2022-11-02T06:18:58;94746.22;;;6.40;100.00
39739;BME280;25422;48.286;8.484;2022-11-02T06:21:23;94746.13;;;6.52;100.00
39739;BME280;25422;48.286;8.484;2022-11-02T06:23:49;94749.59;;;6.62;100.00
39739;BME280;25422;48.286;8.484;2022-11-02T06:26:15;94752.34;;;6.61;100.00
39739;BME280;25422;48.286;8.484;2022-11-02T06:28:41;94753.47;;;6.78;100.00
39739;BME280;25422;48.286;8.484;2022-11-02T06:31:08;94747.63;;;6.85;100.00
39739;BME280;25422;48.286;8.484;2022-11-02T06:33:33;94761.63;;;7.04;100.00
39739;BME280;25422;48.286;8.484;2022-11-02T06:35:59;94769.47;;;7.14;100.00
39739;BME280;25422;48.286;8.484;2022-11-02T06:38:24;94773.72;;;7.24;100.00
39739;BME280;25422;48.286;8.484;2022-11-02T06:41:01;94782.50;;;7.33;100.00
39739;BME280;25422;48.286;8.484;2022-11-02T06:43:28;94774.03;;;7.51;100.00
39739;BME280;25422;48.286;8.484;2022-11-02T06:45:55;94782.13;;;7.67;100.00
39739;BME280;25422;48.286;8.484;2022-11-02T06:48:21;94780.75;;;7.83;100.00
39739;BME280;25422;48.286;8.484;2022-11-02T06:50:47;94782.41;;;7.93;100.00
39739;BME280;25422;48.286;8.484;2022-11-02T06:53:12;94790.06;;;8.05;100.00
39739;BME280;25422;48.286;8.484;2022-11-02T06:55:37;94785.13;;;8.12;100.00
39739;BME280;25422;48.286;8.484;2022-11-02T06:58:03;94794.72;;;8.21;100.00
39739;BME280;25422;48.286;8.484;2022-11-02T07:00:28;94797.03;;;8.24;100.00
39739;BME280;25422;48.286;8.484;2022-11-02T07:02:58;94800.03;;;8.29;100.00
39739;BME280;25422;48.286;8.484;2022-11-02T07:05:24;94808.94;;;8.36;100.00
39739;BME280;25422;48.286;8.484;2022-11-02T07:07:51;94812.91;;;8.40;100.00
39739;BME280;25422;48.286;8.484;2022-11-02T07:10:17;94823.78;;;8.46;100.00
39739;BME280;25422;48.286;8.484;2022-11-02T07:12:42;94829.78;;;8.56;100.00
39739;BME280;25422;48.286;8.484;2022-11-02T07:15:08;94826.78;;;8.60;100.00
39739;BME280;25422;48.286;8.484;2022-11-02T07:17:37;94837.59;;;8.66;100.00
39739;BME280;25422;48.286;8.484;2022-11-02T07:20:03;94838.13;;;8.69;100.00
39739;BME280;25422;48.286;8.484;2022-11-02T07:22:29;94841.84;;;8.76;100.00
39739;BME280;25422;48.286;8.484;2022-11-02T07:24:55;94848.41;;;8.81;100.00
39739;BME280;25422;48.286;8.484;2022-11-02T07:27:21;94859.38;;;8.84;100.00
39739;BME280;25422;48.286;8.484;2022-11-02T07:29:46;94849.78;;;8.85;100.00
39739;BME280;25422;48.286;8.484;2022-11-02T07:32:12;94852.09;;;8.88;100.00
39739;BME280;25422;48.286;8.484;2022-11-02T07:34:37;94862.63;;;8.96;100.00
39739;BME280;25422;48.286;8.484;2022-11-02T07:37:02;94857.97;;;9.00;100.00
39739;BME280;25422;48.286;8.484;2022-11-02T07:39:28;94863.28;;;9.08;100.00
39739;BME280;25422;48.286;8.484;2022-11-02T07:41:53;94859.81;;;9.17;100.00
39739;BME280;25422;48.286;8.484;2022-11-02T07:44:23;94861.69;;;9.25;100.00
39739;BME280;25422;48.286;8.484;2022-11-02T07:46:51;94862.88;;;9.40;100.00
39739;BME280;25422;48.286;8.484;2022-11-02T07:49:17;94862.91;;;9.58;100.00
39739;BME280;25422;48.286;8.484;2022-11-02T07:51:42;94854.56;;;9.73;100.00
39739;BME280;25422;48.286;8.484;2022-11-02T07:54:07;94859.97;;;10.43;100.00
39739;BME280;25422;48.286;8.484;2022-11-02T07:56:33;94852.63;;;10.65;100.00
39739;BME280;25422;48.286;8.484;2022-11-02T07:58:59;94856.84;;;10.66;100.00
39739;BME280;25422;48.286;8.484;2022-11-02T08:01:24;94849.47;;;10.88;100.00
39739;BME280;25422;48.286;8.484;2022-11-02T08:03:50;94860.28;;;11.19;100.00
39739;BME280;25422;48.286;8.484;2022-11-02T08:06:15;94856.28;;;11.41;100.00
39739;BME280;25422;48.286;8.484;2022-11-02T08:08:40;94852.06;;;12.08;100.00
39739;BME280;25422;48.286;8.484;2022-11-02T08:11:07;94865.53;;;12.54;100.00
39739;BME280;25422;48.286;8.484;2022-11-02T08:13:34;94862.19;;;13.02;100.00
39739;BME280;25422;48.286;8.484;2022-11-02T08:15:59;94858.22;;;13.14;100.00
39739;BME280;25422;48.286;8.484;2022-11-02T08:18:26;94852.50;;;13.02;100.00
39739;BME280;25422;48.286;8.484;2022-11-02T08:20:54;94864.88;;;12.52;100.00
39739;BME280;25422;48.286;8.484;2022-11-02T08:23:20;94872.38;;;12.06;100.00
39739;BME280;25422;48.286;8.484;2022-11-02T08:25:47;94870.31;;;11.67;100.00
39739;BME280;25422;48.286;8.484;2022-11-02T08:28:22;94878.53;;;11.37;100.00
39739;BME280;25422;48.286;8.484;2022-11-02T08:30:47;94878.91;;;11.16;100.00
39739;BME280;25422;48.286;8.484;2022-11-02T08:33:15;94891.75;;;11.27;100.00
39739;BME280;25422;48.286;8.484;2022-11-02T08:35:42;94890.47;;;11.32;100.00
39739;BME280;25422;48.286;8.484;2022-11-02T08:38:09;94889.91;;;11.20;100.00
39739;BME280;25422;48.286;8.484;2022-11-02T08:40:35;94889.88;;;11.11;100.00
39739;BME280;25422;48.286;8.484;2022-11-02T08:43:03;94898.66;;;11.02;100.00
39739;BME280;25422;48.286;8.484;2022-11-02T08:45:30;94886.25;;;10.86;100.00
39739;BME280;25422;48.286;8.484;2022-11-02T08:47:56;94893.09;;;10.79;100.00
39739;BME280;25422;48.286;8.484;2022-11-02T08:50:22;94892.69;;;10.92;100.00
39739;BME280;25422;48.286;8.484;2022-11-02T08:52:48;94889.47;;;10.98;100.00
39739;BME280;25422;48.286;8.484;2022-11-02T08:55:14;94886.06;;;11.06;100.00
39739;BME280;25422;48.286;8.484;2022-11-02T08:57:53;94893.13;;;11.40;100.00
39739;BME280;25422;48.286;8.484;2022-11-02T09:00:21;94887.59;;;11.94;100.00
39739;BME280;25422;48.286;8.484;2022-11-02T09:05:32;94884.03;;;12.86;100.00
39739;BME280;25422;48.286;8.484;2022-11-02T09:07:59;94885.66;;;12.95;100.00
39739;BME280;25422;48.286;8.484;2022-11-02T09:10:26;94887.00;;;12.91;100.00
39739;BME280;25422;48.286;8.484;2022-11-02T09:12:52;94897.81;;;13.04;100.00
39739;BME280;25422;48.286;8.484;2022-11-02T09:15:17;94892.09;;;12.68;100.00
39739;BME280;25422;48.286;8.484;2022-11-02T09:17:45;94887.19;;;12.64;100.00
39739;BME280;25422;48.286;8.484;2022-11-02T09:20:12;94898.47;;;12.81;100.00
39739;BME280;25422;48.286;8.484;2022-11-02T09:22:37;94901.94;;;12.82;100.00
39739;BME280;25422;48.286;8.484;2022-11-02T09:25:03;94895.38;;;12.37;100.00
39739;BME280;25422;48.286;8.484;2022-11-02T09:27:28;94887.66;;;12.19;100.00
39739;BME280;25422;48.286;8.484;2022-11-02T09:29:54;94888.94;;;11.98;100.00
39739;BME280;25422;48.286;8.484;2022-11-02T09:32:19;94887.97;;;12.07;100.00
39739;BME280;25422;48.286;8.484;2022-11-02T09:34:44;94890.53;;;11.99;100.00
39739;BME280;25422;48.286;8.484;2022-11-02T09:37:11;94878.09;;;11.58;100.00
39739;BME280;25422;48.286;8.484;2022-11-02T09:39:37;94875.09;;;11.88;100.00
39739;BME280;25422;48.286;8.484;2022-11-02T09:42:19;94879.63;;;12.20;100.00
39739;BME280;25422;48.286;8.484;2022-11-02T09:44:56;94876.63;;;12.07;100.00
39739;BME280;25422;48.286;8.484;2022-11-02T09:47:23;94884.13;;;11.93;100.00
39739;BME280;25422;48.286;8.484;2022-11-02T09:49:51;94882.78;;;11.81;100.00
39739;BME280;25422;48.286;8.484;2022-11-02T09:52:24;94883.28;;;11.76;100.00
39739;BME280;25422;48.286;8.484;2022-11-02T09:54:53;94882.13;;;11.79;100.00
39739;BME280;25422;48.286;8.484;2022-11-02T09:57:28;94887.47;;;12.20;100.00
39739;BME280;25422;48.286;8.484;2022-11-02T09:59:55;94889.59;;;12.25;100.00
39739;BME280;25422;48.286;8.484;2022-11-02T10:05:32;94895.66;;;12.09;100.00
39739;BME280;25422;48.286;8.484;2022-11-02T10:16:21;94902.09;;;11.80;100.00
39739;BME280;25422;48.286;8.484;2022-11-02T10:18:51;94897.28;;;12.02;100.00
39739;BME280;25422;48.286;8.484;2022-11-02T10:21:26;94898.28;;;12.01;100.00
39739;BME280;25422;48.286;8.484;2022-11-02T10:23:56;94897.28;;;12.10;100.00
39739;BME280;25422;48.286;8.484;2022-11-02T10:26:27;94897.63;;;12.15;100.00
39739;BME280;25422;48.286;8.484;2022-11-02T10:29:05;94903.56;;;12.25;100.00
39739;BME280;25422;48.286;8.484;2022-11-02T10:31:35;94897.81;;;12.22;100.00
39739;BME280;25422;48.286;8.484;2022-11-02T10:47:17;94885.69;;;12.78;100.00
39739;BME280;25422;48.286;8.484;2022-11-02T10:50:29;94891.75;;;12.79;100.00
39739;BME280;25422;48.286;8.484;2022-11-02T10:52:59;94886.53;;;12.62;100.00
39739;BME280;25422;48.286;8.484;2022-11-02T10:55:31;94893.91;;;12.59;100.00
39739;BME280;25422;48.286;8.484;2022-11-02T10:57:59;94885.03;;;12.52;100.00
39739;BME280;25422;48.286;8.484;2022-11-02T11:00:37;94888.00;;;12.24;100.00
39739;BME280;25422;48.286;8.484;2022-11-02T11:03:07;94894.41;;;11.87;100.00
39739;BME280;25422;48.286;8.484;2022-11-02T11:05:35;94899.47;;;11.72;100.00
39739;BME280;25422;48.286;8.484;2022-11-02T11:08:02;94889.22;;;11.95;100.00
39739;BME280;25422;48.286;8.484;2022-11-02T11:10:34;94882.25;;;12.37;100.00
39739;BME280;25422;48.286;8.484;2022-11-02T11:13:02;94886.34;;;12.72;100.00
39739;BME280;25422;48.286;8.484;2022-11-02T11:15:31;94880.06;;;13.71;100.00
39739;BME280;25422;48.286;8.484;2022-11-02T11:17:57;94887.13;;;14.02;100.00
39739;BME280;25422;48.286;8.484;2022-11-02T11:20:34;94876.09;;;14.29;96.62
39739;BME280;25422;48.286;8.484;2022-11-02T11:23:26;94883.41;;;14.42;94.89
39739;BME280;25422;48.286;8.484;2022-11-02T11:25:55;94882.94;;;14.85;89.20
39739;BME280;25422;48.286;8.484;2022-11-02T11:28:38;94880.66;;;14.59;93.23
39739;BME280;25422;48.286;8.484;2022-11-02T11:31:14;94875.34;;;14.44;93.58
39739;BME280;25422;48.286;8.484;2022-11-02T11:36:21;94857.81;;;13.50;95.79
39739;BME280;25422;48.286;8.484;2022-11-02T11:38:48;94861.78;;;13.38;98.29
39739;BME280;25422;48.286;8.484;2022-11-02T11:41:15;94856.13;;;13.57;97.95
39739;BME280;25422;48.286;8.484;2022-11-02T11:43:41;94857.66;;;14.06;96.76
39739;BME280;25422;48.286;8.484;2022-11-02T11:46:10;94859.00;;;14.48;95.04
39739;BME280;25422;48.286;8.484;2022-11-02T11:51:34;94852.59;;;14.89;86.31
39739;BME280;25422;48.286;8.484;2022-11-02T11:56:56;94854.75;;;13.22;100.00
39739;BME280;25422;48.286;8.484;2022-11-02T12:01:54;94842.09;;;12.28;100.00
39739;BME280;25422;48.286;8.484;2022-11-02T12:04:28;94846.63;;;12.01;100.00
39739;BME280;25422;48.286;8.484;2022-11-02T12:09:40;94841.22;;;11.43;100.00
39739;BME280;25422;48.286;8.484;2022-11-02T12:12:38;94835.69;;;11.46;100.00
39739;BME280;25422;48.286;8.484;2022-11-02T12:15:36;94829.13;;;11.42;100.00
39739;BME280;25422;48.286;8.484;2022-11-02T12:24:11;94820.44;;;12.18;100.00
39739;BME280;25422;48.286;8.484;2022-11-02T12:26:49;94815.00;;;13.25;100.00
39739;BME280;25422;48.286;8.484;2022-11-02T12:37:23;94814.25;;;15.16;88.88
39739;BME280;25422;48.286;8.484;2022-11-02T12:40:04;94811.63;;;14.87;90.25
39739;BME280;25422;48.286;8.484;2022-11-02T12:42:41;94795.06;;;14.63;95.92
39739;BME280;25422;48.286;8.484;2022-11-02T12:45:20;94794.69;;;13.81;99.38
39739;BME280;25422;48.286;8.484;2022-11-02T12:50:36;94804.25;;;12.95;100.00
39739;BME280;25422;48.286;8.484;2022-11-02T12:56:06;94795.31;;;12.40;100.00
39739;BME280;25422;48.286;8.484;2022-11-02T12:58:36;94800.09;;;12.36;100.00
39739;BME280;25422;48.286;8.484;2022-11-02T13:01:10;94804.50;;;12.69;100.00
39739;BME280;25422;48.286;8.484;2022-11-02T13:06:12;94788.28;;;13.05;100.00
39739;BME280;25422;48.286;8.484;2022-11-02T13:08:41;94799.16;;;12.93;100.00
39739;BME280;25422;48.286;8.484;2022-11-02T13:11:38;94780.38;;;13.21;100.00
39739;BME280;25422;48.286;8.484;2022-11-02T13:14:03;94777.03;;;13.36;98.15
39739;BME280;25422;48.286;8.484;2022-11-02T13:17:02;94782.19;;;13.12;97.88
39739;BME280;25422;48.286;8.484;2022-11-02T13:19:39;94785.78;;;12.72;100.00
39739;BME280;25422;48.286;8.484;2022-11-02T13:22:09;94785.56;;;12.81;100.00
39739;BME280;25422;48.286;8.484;2022-11-02T13:24:41;94787.09;;;12.68;97.75
39739;BME280;25422;48.286;8.484;2022-11-02T13:27:24;94784.84;;;12.48;95.25
39739;BME280;25422;48.286;8.484;2022-11-02T13:29:53;94783.50;;;12.69;95.32
39739;BME280;25422;48.286;8.484;2022-11-02T13:32:27;94773.09;;;12.92;93.13
39739;BME280;25422;48.286;8.484;2022-11-02T13:34:56;94775.47;;;13.10;93.41
39739;BME280;25422;48.286;8.484;2022-11-02T13:37:38;94768.09;;;13.13;90.50
39739;BME280;25422;48.286;8.484;2022-11-02T13:40:13;94771.69;;;13.12;90.88
39739;BME280;25422;48.286;8.484;2022-11-02T13:42:59;94769.38;;;13.18;90.22
39739;BME280;25422;48.286;8.484;2022-11-02T13:45:50;94771.56;;;13.06;91.40
39739;BME280;25422;48.286;8.484;2022-11-02T13:51:16;94774.78;;;13.24;90.16
39739;BME280;25422;48.286;8.484;2022-11-02T13:53:51;94769.28;;;13.34;89.93
39739;BME280;25422;48.286;8.484;2022-11-02T13:56:27;94781.78;;;13.32;92.72
39739;BME280;25422;48.286;8.484;2022-11-02T13:59:20;94776.53;;;13.40;90.37
39739;BME280;25422;48.286;8.484;2022-11-02T14:01:46;94765.88;;;13.33;89.08
39739;BME280;25422;48.286;8.484;2022-11-02T14:04:13;94762.25;;;13.26;91.18
39739;BME280;25422;48.286;8.484;2022-11-02T14:09:23;94760.91;;;12.99;92.51
39739;BME280;25422;48.286;8.484;2022-11-02T14:11:50;94756.88;;;12.72;93.58
39739;BME280;25422;48.286;8.484;2022-11-02T14:14:33;94759.38;;;12.57;93.98
39739;BME280;25422;48.286;8.484;2022-11-02T14:17:09;94756.13;;;12.46;97.46
39739;BME280;25422;48.286;8.484;2022-11-02T14:22:15;94748.59;;;12.35;98.74
39739;BME280;25422;48.286;8.484;2022-11-02T14:40:53;94748.56;;;11.69;100.00
39739;BME280;25422;48.286;8.484;2022-11-02T14:44:00;94743.97;;;11.55;100.00
39739;BME280;25422;48.286;8.484;2022-11-02T14:46:42;94742.84;;;11.49;100.00
39739;BME280;25422;48.286;8.484;2022-11-02T14:49:37;94737.72;;;11.39;100.00
39739;BME280;25422;48.286;8.484;2022-11-02T14:52:14;94739.00;;;11.35;100.00
39739;BME280;25422;48.286;8.484;2022-11-02T14:57:31;94741.13;;;11.23;100.00
39739;BME280;25422;48.286;8.484;2022-11-02T15:00:01;94734.41;;;11.12;100.00
39739;BME280;25422;48.286;8.484;2022-11-02T15:02:36;94737.28;;;11.01;100.00